Impacts TAF Board INFO
FOR SITUATIONAL AWARENESS. NOT TO BE USED FOR FLIGHT PLANNING PURPOSES.
IDs:

KDCA - Washington/National, VA, US

Issued at 1135 UTC 18 Jan 2018
Updated at 1157 UTC 18 Jan 2018
Potential Impact None Slight Moderate High
Time<<19/12Z 19/13Z 19/14Z 19/15Z 19/16Z 19/17Z 19/18Z 19/19Z 19/20Z 19/21Z 19/22Z 19/23Z 20/00Z
Type PRVL PRVL PRVL PRVL PRVL PRVL
VIS >6 >6 >6 >6 >6 >6
CIG -- -- -- -- -- --
Cover SKC SKC SKC FEW FEW FEW
FltCat VFR VFR VFR VFR VFR VFR
WX -- -- -- -- -- --
WDir 300 300 300 250 250 250
WSpd 6 6 6 6 6 6
WGst -- -- -- -- -- --

Raw TAF
KDCA 181135Z 1812/1918 31012G20KT P6SM FEW100
  FM182300 30006KT P6SM SKC
  FM191500 25006KT P6SM FEW250


METAR Board
Radar Display
Forecast Discussion

FOR SITUATIONAL AWARENESS. NOT TO BE USED FOR FLIGHT PLANNING PURPOSES.